Aviation Digital Data Service (ADDS)

Output produced by METARs form (2049 UTC 25 October 2021)
found at http://www.aviationweather.gov/metar/data/
 
KSIF 252035Z AUTO 19004KT 10SM SCT075 BKN100 BKN120 23/17 A2974 RMK AO2 T02330165